sensor_id;sensor_type;location;lat;lon;timestamp;temperature;humidity
20398;DHT22;10358;49.590;11.030;2023-02-15T00:01:44;1.10;99.90
20398;DHT22;10358;49.590;11.030;2023-02-15T00:04:12;1.20;99.90
20398;DHT22;10358;49.590;11.030;2023-02-15T00:06:38;1.10;99.90
20398;DHT22;10358;49.590;11.030;2023-02-15T00:09:04;1.10;99.90
20398;DHT22;10358;49.590;11.030;2023-02-15T00:11:29;1.10;99.90
20398;DHT22;10358;49.590;11.030;2023-02-15T00:14:30;1.20;99.90
20398;DHT22;10358;49.590;11.030;2023-02-15T00:16:56;1.20;99.90
20398;DHT22;10358;49.590;11.030;2023-02-15T00:19:25;1.20;99.90
20398;DHT22;10358;49.590;11.030;2023-02-15T00:21:50;1.20;99.90
20398;DHT22;10358;49.590;11.030;2023-02-15T00:24:17;1.20;99.90
20398;DHT22;10358;49.590;11.030;2023-02-15T00:26:44;1.10;99.90
20398;DHT22;10358;49.590;11.030;2023-02-15T00:29:11;1.10;99.90
20398;DHT22;10358;49.590;11.030;2023-02-15T00:31:38;1.10;99.90
20398;DHT22;10358;49.590;11.030;2023-02-15T00:34:21;1.10;99.90
20398;DHT22;10358;49.590;11.030;2023-02-15T00:36:47;1.10;99.90
20398;DHT22;10358;49.590;11.030;2023-02-15T00:39:13;1.10;99.90
20398;DHT22;10358;49.590;11.030;2023-02-15T00:41:39;1.10;99.90
20398;DHT22;10358;49.590;11.030;2023-02-15T00:44:06;1.10;99.90
20398;DHT22;10358;49.590;11.030;2023-02-15T00:46:32;1.10;99.90
20398;DHT22;10358;49.590;11.030;2023-02-15T00:48:57;1.10;99.90
20398;DHT22;10358;49.590;11.030;2023-02-15T00:51:23;1.10;99.90
20398;DHT22;10358;49.590;11.030;2023-02-15T00:53:49;1.10;99.90
20398;DHT22;10358;49.590;11.030;2023-02-15T00:56:15;1.10;99.90
20398;DHT22;10358;49.590;11.030;2023-02-15T00:58:41;1.10;99.90
20398;DHT22;10358;49.590;11.030;2023-02-15T01:01:12;1.10;99.90
20398;DHT22;10358;49.590;11.030;2023-02-15T01:03:39;1.10;99.90
20398;DHT22;10358;49.590;11.030;2023-02-15T01:06:06;1.20;99.90
20398;DHT22;10358;49.590;11.030;2023-02-15T01:08:32;1.20;99.90
20398;DHT22;10358;49.590;11.030;2023-02-15T01:11:23;1.20;99.90
20398;DHT22;10358;49.590;11.030;2023-02-15T01:13:53;1.20;99.90
20398;DHT22;10358;49.590;11.030;2023-02-15T01:16:19;1.20;99.90
20398;DHT22;10358;49.590;11.030;2023-02-15T01:18:45;1.20;99.90
20398;DHT22;10358;49.590;11.030;2023-02-15T01:21:17;1.10;99.90
20398;DHT22;10358;49.590;11.030;2023-02-15T01:23:43;1.10;99.90
20398;DHT22;10358;49.590;11.030;2023-02-15T01:26:09;1.00;99.90
20398;DHT22;10358;49.590;11.030;2023-02-15T01:28:35;1.00;99.90
20398;DHT22;10358;49.590;11.030;2023-02-15T01:31:09;0.90;99.90
20398;DHT22;10358;49.590;11.030;2023-02-15T01:33:36;1.00;99.90
20398;DHT22;10358;49.590;11.030;2023-02-15T01:36:02;1.00;99.90
20398;DHT22;10358;49.590;11.030;2023-02-15T01:38:28;0.80;99.90
20398;DHT22;10358;49.590;11.030;2023-02-15T01:40:54;0.80;99.90
20398;DHT22;10358;49.590;11.030;2023-02-15T01:43:42;0.70;99.90
20398;DHT22;10358;49.590;11.030;2023-02-15T01:46:08;0.70;99.90
20398;DHT22;10358;49.590;11.030;2023-02-15T01:48:46;0.70;99.90
20398;DHT22;10358;49.590;11.030;2023-02-15T01:51:14;0.70;99.90
20398;DHT22;10358;49.590;11.030;2023-02-15T01:53:45;0.70;99.90
20398;DHT22;10358;49.590;11.030;2023-02-15T01:56:19;0.70;99.90
20398;DHT22;10358;49.590;11.030;2023-02-15T01:58:46;0.70;99.90
20398;DHT22;10358;49.590;11.030;2023-02-15T02:01:13;0.60;99.90
20398;DHT22;10358;49.590;11.030;2023-02-15T02:06:33;0.60;99.90
20398;DHT22;10358;49.590;11.030;2023-02-15T02:09:00;0.70;99.90
20398;DHT22;10358;49.590;11.030;2023-02-15T02:11:27;0.70;99.90
20398;DHT22;10358;49.590;11.030;2023-02-15T02:13:53;0.70;99.90
20398;DHT22;10358;49.590;11.030;2023-02-15T02:25:21;0.70;99.90
20398;DHT22;10358;49.590;11.030;2023-02-15T02:36:26;0.70;99.90
20398;DHT22;10358;49.590;11.030;2023-02-15T02:39:19;0.70;99.90
20398;DHT22;10358;49.590;11.030;2023-02-15T02:42:11;0.70;99.90
20398;DHT22;10358;49.590;11.030;2023-02-15T02:44:41;0.70;99.90
20398;DHT22;10358;49.590;11.030;2023-02-15T02:47:21;0.50;99.90
20398;DHT22;10358;49.590;11.030;2023-02-15T02:49:52;0.70;99.90
20398;DHT22;10358;49.590;11.030;2023-02-15T02:52:38;0.70;99.90
20398;DHT22;10358;49.590;11.030;2023-02-15T02:57:37;0.70;99.90
20398;DHT22;10358;49.590;11.030;2023-02-15T03:00:05;0.70;99.90
20398;DHT22;10358;49.590;11.030;2023-02-15T03:02:37;0.50;99.90
20398;DHT22;10358;49.590;11.030;2023-02-15T03:05:09;0.60;99.90
20398;DHT22;10358;49.590;11.030;2023-02-15T03:07:37;0.60;99.90
20398;DHT22;10358;49.590;11.030;2023-02-15T03:10:05;0.60;99.90
20398;DHT22;10358;49.590;11.030;2023-02-15T03:12:37;0.70;99.90
20398;DHT22;10358;49.590;11.030;2023-02-15T03:15:23;0.70;99.90
20398;DHT22;10358;49.590;11.030;2023-02-15T03:17:57;0.60;99.90
20398;DHT22;10358;49.590;11.030;2023-02-15T03:20:30;0.70;99.90
20398;DHT22;10358;49.590;11.030;2023-02-15T03:23:01;0.60;99.90
20398;DHT22;10358;49.590;11.030;2023-02-15T03:25:34;0.70;99.90
20398;DHT22;10358;49.590;11.030;2023-02-15T03:28:04;0.70;99.90
20398;DHT22;10358;49.590;11.030;2023-02-15T03:30:32;0.80;99.90
20398;DHT22;10358;49.590;11.030;2023-02-15T03:33:00;0.70;99.90
20398;DHT22;10358;49.590;11.030;2023-02-15T03:38:09;0.70;99.90
20398;DHT22;10358;49.590;11.030;2023-02-15T03:40:40;0.60;99.90
20398;DHT22;10358;49.590;11.030;2023-02-15T03:43:56;0.60;99.90
20398;DHT22;10358;49.590;11.030;2023-02-15T03:46:32;0.60;99.90
20398;DHT22;10358;49.590;11.030;2023-02-15T03:49:09;0.60;99.90
20398;DHT22;10358;49.590;11.030;2023-02-15T03:51:39;0.60;99.90
20398;DHT22;10358;49.590;11.030;2023-02-15T03:54:13;0.50;99.90
20398;DHT22;10358;49.590;11.030;2023-02-15T03:57:01;0.50;99.90
20398;DHT22;10358;49.590;11.030;2023-02-15T03:59:45;0.50;99.90
20398;DHT22;10358;49.590;11.030;2023-02-15T04:02:38;0.60;99.90
20398;DHT22;10358;49.590;11.030;2023-02-15T04:05:05;0.50;99.90
20398;DHT22;10358;49.590;11.030;2023-02-15T04:07:30;0.40;99.90
20398;DHT22;10358;49.590;11.030;2023-02-15T04:09:56;0.40;99.90
20398;DHT22;10358;49.590;11.030;2023-02-15T04:12:40;0.40;99.90
20398;DHT22;10358;49.590;11.030;2023-02-15T04:15:06;0.40;99.90
20398;DHT22;10358;49.590;11.030;2023-02-15T04:17:50;0.40;99.90
20398;DHT22;10358;49.590;11.030;2023-02-15T04:20:16;0.40;99.90
20398;DHT22;10358;49.590;11.030;2023-02-15T04:23:00;0.40;99.90
20398;DHT22;10358;49.590;11.030;2023-02-15T04:25:44;0.50;99.90
20398;DHT22;10358;49.590;11.030;2023-02-15T04:28:10;0.50;99.90
20398;DHT22;10358;49.590;11.030;2023-02-15T04:30:36;0.50;99.90
20398;DHT22;10358;49.590;11.030;2023-02-15T04:33:01;0.50;99.90
20398;DHT22;10358;49.590;11.030;2023-02-15T04:35:27;0.50;99.90
20398;DHT22;10358;49.590;11.030;2023-02-15T04:37:52;0.40;99.90
20398;DHT22;10358;49.590;11.030;2023-02-15T04:40:18;0.40;99.90
20398;DHT22;10358;49.590;11.030;2023-02-15T04:42:44;0.40;99.90
20398;DHT22;10358;49.590;11.030;2023-02-15T04:45:09;0.50;99.90
20398;DHT22;10358;49.590;11.030;2023-02-15T04:47:35;0.50;99.90
20398;DHT22;10358;49.590;11.030;2023-02-15T04:50:00;0.50;99.90
20398;DHT22;10358;49.590;11.030;2023-02-15T04:52:26;0.50;99.90
20398;DHT22;10358;49.590;11.030;2023-02-15T04:54:51;0.40;99.90
20398;DHT22;10358;49.590;11.030;2023-02-15T04:57:17;0.40;99.90
20398;DHT22;10358;49.590;11.030;2023-02-15T04:59:42;0.40;99.90
20398;DHT22;10358;49.590;11.030;2023-02-15T05:02:08;0.40;99.90
20398;DHT22;10358;49.590;11.030;2023-02-15T05:04:34;0.40;99.90
20398;DHT22;10358;49.590;11.030;2023-02-15T05:06:59;0.30;99.90
20398;DHT22;10358;49.590;11.030;2023-02-15T05:09:25;0.30;99.90
20398;DHT22;10358;49.590;11.030;2023-02-15T05:11:50;0.30;99.90
20398;DHT22;10358;49.590;11.030;2023-02-15T05:14:16;0.30;99.90
20398;DHT22;10358;49.590;11.030;2023-02-15T05:16:41;0.30;99.90
20398;DHT22;10358;49.590;11.030;2023-02-15T05:19:07;0.30;99.90
20398;DHT22;10358;49.590;11.030;2023-02-15T05:21:33;0.30;99.90
20398;DHT22;10358;49.590;11.030;2023-02-15T05:23:59;0.20;99.90
20398;DHT22;10358;49.590;11.030;2023-02-15T05:26:25;0.20;99.90
20398;DHT22;10358;49.590;11.030;2023-02-15T05:29:10;0.30;99.90
20398;DHT22;10358;49.590;11.030;2023-02-15T05:31:36;0.10;99.90
20398;DHT22;10358;49.590;11.030;2023-02-15T05:34:02;0.30;99.90
20398;DHT22;10358;49.590;11.030;2023-02-15T05:36:28;0.30;99.90
20398;DHT22;10358;49.590;11.030;2023-02-15T05:38:54;0.40;99.90
20398;DHT22;10358;49.590;11.030;2023-02-15T05:41:19;0.30;99.90
20398;DHT22;10358;49.590;11.030;2023-02-15T05:43:45;0.10;99.90
20398;DHT22;10358;49.590;11.030;2023-02-15T05:46:12;0.10;99.90
20398;DHT22;10358;49.590;11.030;2023-02-15T05:48:37;0.10;99.90
20398;DHT22;10358;49.590;11.030;2023-02-15T05:51:13;0.10;99.90
20398;DHT22;10358;49.590;11.030;2023-02-15T05:53:40;0.10;99.90
20398;DHT22;10358;49.590;11.030;2023-02-15T05:56:08;0.10;99.90
20398;DHT22;10358;49.590;11.030;2023-02-15T05:58:36;0.10;99.90
20398;DHT22;10358;49.590;11.030;2023-02-15T06:01:09;0.10;99.90
20398;DHT22;10358;49.590;11.030;2023-02-15T06:03:35;0.10;99.90
20398;DHT22;10358;49.590;11.030;2023-02-15T06:06:00;0.10;99.90
20398;DHT22;10358;49.590;11.030;2023-02-15T06:08:26;0.20;99.90
20398;DHT22;10358;49.590;11.030;2023-02-15T06:10:51;0.20;99.90
20398;DHT22;10358;49.590;11.030;2023-02-15T06:13:17;0.30;99.90
20398;DHT22;10358;49.590;11.030;2023-02-15T06:15:43;0.20;99.90
20398;DHT22;10358;49.590;11.030;2023-02-15T06:18:08;0.30;99.90
20398;DHT22;10358;49.590;11.030;2023-02-15T06:20:34;0.30;99.90
20398;DHT22;10358;49.590;11.030;2023-02-15T06:22:59;0.20;99.90
20398;DHT22;10358;49.590;11.030;2023-02-15T06:25:25;0.20;99.90
20398;DHT22;10358;49.590;11.030;2023-02-15T06:27:50;0.20;99.90
20398;DHT22;10358;49.590;11.030;2023-02-15T06:30:17;0.10;99.90
20398;DHT22;10358;49.590;11.030;2023-02-15T06:32:43;0.10;99.90
20398;DHT22;10358;49.590;11.030;2023-02-15T06:35:08;0.10;99.90
20398;DHT22;10358;49.590;11.030;2023-02-15T06:37:35;0.20;99.90
20398;DHT22;10358;49.590;11.030;2023-02-15T06:40:00;0.30;99.90
20398;DHT22;10358;49.590;11.030;2023-02-15T06:42:26;0.10;99.90
20398;DHT22;10358;49.590;11.030;2023-02-15T06:44:51;0.30;99.90
20398;DHT22;10358;49.590;11.030;2023-02-15T06:47:17;0.30;99.90
20398;DHT22;10358;49.590;11.030;2023-02-15T06:49:42;0.30;99.90
20398;DHT22;10358;49.590;11.030;2023-02-15T06:52:08;0.40;99.90
20398;DHT22;10358;49.590;11.030;2023-02-15T06:54:33;0.30;99.90
20398;DHT22;10358;49.590;11.030;2023-02-15T06:56:59;0.30;99.90
20398;DHT22;10358;49.590;11.030;2023-02-15T06:59:24;0.30;99.90
20398;DHT22;10358;49.590;11.030;2023-02-15T07:01:50;0.30;99.90
20398;DHT22;10358;49.590;11.030;2023-02-15T07:04:16;0.20;99.90
20398;DHT22;10358;49.590;11.030;2023-02-15T07:06:41;0.20;99.90
20398;DHT22;10358;49.590;11.030;2023-02-15T07:09:07;0.20;99.90
20398;DHT22;10358;49.590;11.030;2023-02-15T07:11:33;0.20;99.90
20398;DHT22;10358;49.590;11.030;2023-02-15T07:14:17;0.10;99.90
20398;DHT22;10358;49.590;11.030;2023-02-15T07:16:42;0.10;99.90
20398;DHT22;10358;49.590;11.030;2023-02-15T07:19:08;0.10;99.90
20398;DHT22;10358;49.590;11.030;2023-02-15T07:21:35;0.00;99.90
20398;DHT22;10358;49.590;11.030;2023-02-15T07:24:01;0.00;99.90
20398;DHT22;10358;49.590;11.030;2023-02-15T07:26:27;0.00;99.90
20398;DHT22;10358;49.590;11.030;2023-02-15T07:28:52;0.10;99.90
20398;DHT22;10358;49.590;11.030;2023-02-15T07:31:18;0.10;99.90
20398;DHT22;10358;49.590;11.030;2023-02-15T07:33:43;0.10;99.90
20398;DHT22;10358;49.590;11.030;2023-02-15T07:36:10;0.10;99.90
20398;DHT22;10358;49.590;11.030;2023-02-15T07:38:39;0.20;99.90
20398;DHT22;10358;49.590;11.030;2023-02-15T07:41:07;0.20;99.90
20398;DHT22;10358;49.590;11.030;2023-02-15T07:43:36;0.20;99.90
20398;DHT22;10358;49.590;11.030;2023-02-15T07:46:03;0.20;99.90
20398;DHT22;10358;49.590;11.030;2023-02-15T07:48:29;0.20;99.90
20398;DHT22;10358;49.590;11.030;2023-02-15T07:50:59;0.20;99.90
20398;DHT22;10358;49.590;11.030;2023-02-15T07:53:25;0.20;99.90
20398;DHT22;10358;49.590;11.030;2023-02-15T07:55:50;0.20;99.90
20398;DHT22;10358;49.590;11.030;2023-02-15T07:58:17;0.30;99.90
20398;DHT22;10358;49.590;11.030;2023-02-15T08:00:43;0.20;99.90
20398;DHT22;10358;49.590;11.030;2023-02-15T08:03:27;0.30;99.90
20398;DHT22;10358;49.590;11.030;2023-02-15T08:05:58;0.30;99.90
20398;DHT22;10358;49.590;11.030;2023-02-15T08:08:25;0.30;99.90
20398;DHT22;10358;49.590;11.030;2023-02-15T08:13:49;0.30;99.90
20398;DHT22;10358;49.590;11.030;2023-02-15T08:18:55;0.50;99.90
20398;DHT22;10358;49.590;11.030;2023-02-15T08:21:22;0.50;99.90
20398;DHT22;10358;49.590;11.030;2023-02-15T08:23:48;0.40;99.90
20398;DHT22;10358;49.590;11.030;2023-02-15T08:26:14;0.50;99.90
20398;DHT22;10358;49.590;11.030;2023-02-15T08:28:41;0.40;99.90
20398;DHT22;10358;49.590;11.030;2023-02-15T08:31:10;0.40;99.90
20398;DHT22;10358;49.590;11.030;2023-02-15T08:33:38;0.50;99.90
20398;DHT22;10358;49.590;11.030;2023-02-15T08:36:09;0.50;99.90
20398;DHT22;10358;49.590;11.030;2023-02-15T08:38:35;0.50;99.90
20398;DHT22;10358;49.590;11.030;2023-02-15T08:41:20;0.70;99.90
20398;DHT22;10358;49.590;11.030;2023-02-15T08:43:48;0.70;99.90
20398;DHT22;10358;49.590;11.030;2023-02-15T08:46:15;0.70;99.90
20398;DHT22;10358;49.590;11.030;2023-02-15T08:48:41;0.70;99.90
20398;DHT22;10358;49.590;11.030;2023-02-15T08:51:18;0.70;99.90
20398;DHT22;10358;49.590;11.030;2023-02-15T08:53:46;0.80;99.90
20398;DHT22;10358;49.590;11.030;2023-02-15T08:56:15;0.70;99.90
20398;DHT22;10358;49.590;11.030;2023-02-15T08:58:40;0.70;99.90
20398;DHT22;10358;49.590;11.030;2023-02-15T09:01:13;0.80;99.90
20398;DHT22;10358;49.590;11.030;2023-02-15T09:03:40;0.80;99.90
20398;DHT22;10358;49.590;11.030;2023-02-15T09:06:05;0.90;99.90
20398;DHT22;10358;49.590;11.030;2023-02-15T09:08:31;1.00;99.90
20398;DHT22;10358;49.590;11.030;2023-02-15T09:11:08;1.00;99.90
20398;DHT22;10358;49.590;11.030;2023-02-15T09:13:35;1.00;99.90
20398;DHT22;10358;49.590;11.030;2023-02-15T09:16:06;0.90;99.90
20398;DHT22;10358;49.590;11.030;2023-02-15T09:18:34;0.90;99.90
20398;DHT22;10358;49.590;11.030;2023-02-15T09:21:09;1.00;99.90
20398;DHT22;10358;49.590;11.030;2023-02-15T09:23:36;1.10;99.90
20398;DHT22;10358;49.590;11.030;2023-02-15T09:26:07;1.10;99.90
20398;DHT22;10358;49.590;11.030;2023-02-15T09:28:32;1.10;99.90
20398;DHT22;10358;49.590;11.030;2023-02-15T09:31:18;1.10;99.90
20398;DHT22;10358;49.590;11.030;2023-02-15T09:33:45;1.10;99.90
20398;DHT22;10358;49.590;11.030;2023-02-15T09:36:20;1.10;99.90
20398;DHT22;10358;49.590;11.030;2023-02-15T09:39:10;1.10;99.90
20398;DHT22;10358;49.590;11.030;2023-02-15T09:52:45;1.30;99.90
20398;DHT22;10358;49.590;11.030;2023-02-15T09:58:31;1.50;99.90
20398;DHT22;10358;49.590;11.030;2023-02-15T10:09:33;1.80;99.90
20398;DHT22;10358;49.590;11.030;2023-02-15T10:12:11;1.80;99.90
20398;DHT22;10358;49.590;11.030;2023-02-15T10:15:07;1.80;99.90
20398;DHT22;10358;49.590;11.030;2023-02-15T10:27:49;2.20;99.90
20398;DHT22;10358;49.590;11.030;2023-02-15T10:30:25;2.30;99.90
20398;DHT22;10358;49.590;11.030;2023-02-15T10:33:00;2.40;99.90
20398;DHT22;10358;49.590;11.030;2023-02-15T10:57:52;2.90;99.90
20398;DHT22;10358;49.590;11.030;2023-02-15T11:00:33;3.10;99.90
20398;DHT22;10358;49.590;11.030;2023-02-15T11:08:09;3.60;99.90
20398;DHT22;10358;49.590;11.030;2023-02-15T11:13:09;3.60;99.90
20398;DHT22;10358;49.590;11.030;2023-02-15T11:15:41;3.70;99.90
20398;DHT22;10358;49.590;11.030;2023-02-15T11:20:53;3.90;99.90
20398;DHT22;10358;49.590;11.030;2023-02-15T11:23:20;3.90;99.90
20398;DHT22;10358;49.590;11.030;2023-02-15T11:25:52;4.00;99.90
20398;DHT22;10358;49.590;11.030;2023-02-15T11:28:27;4.10;99.90
20398;DHT22;10358;49.590;11.030;2023-02-15T11:30:55;4.20;99.90
20398;DHT22;10358;49.590;11.030;2023-02-15T11:33:27;4.30;99.90
20398;DHT22;10358;49.590;11.030;2023-02-15T11:35:59;4.10;99.90
20398;DHT22;10358;49.590;11.030;2023-02-15T11:38:28;4.10;99.90
20398;DHT22;10358;49.590;11.030;2023-02-15T11:41:07;4.10;99.90
20398;DHT22;10358;49.590;11.030;2023-02-15T11:43:43;4.00;99.90
20398;DHT22;10358;49.590;11.030;2023-02-15T11:46:11;3.90;99.90
20398;DHT22;10358;49.590;11.030;2023-02-15T11:48:37;3.80;99.90
20398;DHT22;10358;49.590;11.030;2023-02-15T11:51:04;3.90;99.90
20398;DHT22;10358;49.590;11.030;2023-02-15T11:53:33;3.80;99.90
20398;DHT22;10358;49.590;11.030;2023-02-15T11:55:59;3.80;99.90
20398;DHT22;10358;49.590;11.030;2023-02-15T11:58:28;3.80;99.90
20398;DHT22;10358;49.590;11.030;2023-02-15T12:01:00;3.80;99.90
20398;DHT22;10358;49.590;11.030;2023-02-15T12:03:42;3.80;99.90
20398;DHT22;10358;49.590;11.030;2023-02-15T12:06:29;3.90;99.90
20398;DHT22;10358;49.590;11.030;2023-02-15T12:09:06;3.80;99.90
20398;DHT22;10358;49.590;11.030;2023-02-15T12:11:35;3.70;99.90
20398;DHT22;10358;49.590;11.030;2023-02-15T12:14:09;3.70;99.90
20398;DHT22;10358;49.590;11.030;2023-02-15T12:19:38;3.70;99.90
20398;DHT22;10358;49.590;11.030;2023-02-15T12:22:06;3.80;99.90
20398;DHT22;10358;49.590;11.030;2023-02-15T12:24:38;3.80;99.90
20398;DHT22;10358;49.590;11.030;2023-02-15T12:27:18;3.90;99.90
20398;DHT22;10358;49.590;11.030;2023-02-15T12:29:49;4.00;99.90
20398;DHT22;10358;49.590;11.030;2023-02-15T12:32:24;4.20;99.90
20398;DHT22;10358;49.590;11.030;2023-02-15T12:34:51;4.30;99.90
20398;DHT22;10358;49.590;11.030;2023-02-15T12:37:22;4.40;99.90
20398;DHT22;10358;49.590;11.030;2023-02-15T12:39:53;4.50;99.90
20398;DHT22;10358;49.590;11.030;2023-02-15T12:42:19;4.50;99.90
20398;DHT22;10358;49.590;11.030;2023-02-15T12:47:21;4.60;99.90
20398;DHT22;10358;49.590;11.030;2023-02-15T12:50:11;4.70;99.90
20398;DHT22;10358;49.590;11.030;2023-02-15T12:52:43;4.70;99.90
20398;DHT22;10358;49.590;11.030;2023-02-15T12:55:27;4.70;99.90
20398;DHT22;10358;49.590;11.030;2023-02-15T12:58:07;4.70;99.90
20398;DHT22;10358;49.590;11.030;2023-02-15T13:00:33;4.70;99.90
20398;DHT22;10358;49.590;11.030;2023-02-15T13:03:00;4.80;99.90
20398;DHT22;10358;49.590;11.030;2023-02-15T13:05:36;4.90;99.90
20398;DHT22;10358;49.590;11.030;2023-02-15T13:08:11;5.00;99.90
20398;DHT22;10358;49.590;11.030;2023-02-15T13:10:41;5.10;99.90
20398;DHT22;10358;49.590;11.030;2023-02-15T13:13:17;5.20;99.90
20398;DHT22;10358;49.590;11.030;2023-02-15T13:15:46;5.30;99.90
20398;DHT22;10358;49.590;11.030;2023-02-15T13:18:17;5.40;99.90
20398;DHT22;10358;49.590;11.030;2023-02-15T13:20:44;5.40;99.90
20398;DHT22;10358;49.590;11.030;2023-02-15T13:23:26;5.40;99.90
20398;DHT22;10358;49.590;11.030;2023-02-15T13:25:55;5.70;99.90
20398;DHT22;10358;49.590;11.030;2023-02-15T13:28:27;5.90;99.90
20398;DHT22;10358;49.590;11.030;2023-02-15T13:30:57;6.00;99.90
20398;DHT22;10358;49.590;11.030;2023-02-15T13:33:31;6.00;99.90
20398;DHT22;10358;49.590;11.030;2023-02-15T13:36:05;6.00;99.90
20398;DHT22;10358;49.590;11.030;2023-02-15T13:39:01;6.10;99.90
20398;DHT22;10358;49.590;11.030;2023-02-15T13:41:51;6.20;99.90
20398;DHT22;10358;49.590;11.030;2023-02-15T13:55:44;6.40;99.90
20398;DHT22;10358;49.590;11.030;2023-02-15T14:04:03;6.60;99.90
20398;DHT22;10358;49.590;11.030;2023-02-15T14:06:56;6.70;99.90
20398;DHT22;10358;49.590;11.030;2023-02-15T14:23:38;7.30;99.90
20398;DHT22;10358;49.590;11.030;2023-02-15T14:32:05;7.50;99.90
20398;DHT22;10358;49.590;11.030;2023-02-15T14:34:46;7.60;99.90
20398;DHT22;10358;49.590;11.030;2023-02-15T14:37:24;7.70;99.90
20398;DHT22;10358;49.590;11.030;2023-02-15T14:43:00;7.60;99.90
20398;DHT22;10358;49.590;11.030;2023-02-15T14:46:00;7.70;99.90
20398;DHT22;10358;49.590;11.030;2023-02-15T14:48:31;7.60;99.70
20398;DHT22;10358;49.590;11.030;2023-02-15T14:50:58;7.20;99.90
20398;DHT22;10358;49.590;11.030;2023-02-15T14:56:16;7.30;99.90
20398;DHT22;10358;49.590;11.030;2023-02-15T15:01:15;7.20;99.90
20398;DHT22;10358;49.590;11.030;2023-02-15T15:03:53;7.20;99.90
20398;DHT22;10358;49.590;11.030;2023-02-15T15:06:26;7.30;99.90
20398;DHT22;10358;49.590;11.030;2023-02-15T15:08:58;7.60;99.90
20398;DHT22;10358;49.590;11.030;2023-02-15T15:13:56;7.70;99.90
20398;DHT22;10358;49.590;11.030;2023-02-15T15:16:29;7.70;99.20
20398;DHT22;10358;49.590;11.030;2023-02-15T15:18:55;7.70;99.90
20398;DHT22;10358;49.590;11.030;2023-02-15T15:27:41;8.10;99.90
20398;DHT22;10358;49.590;11.030;2023-02-15T15:44:06;8.50;96.90
20398;DHT22;10358;49.590;11.030;2023-02-15T15:49:30;8.00;98.00
20398;DHT22;10358;49.590;11.030;2023-02-15T15:52:08;7.90;98.10
20398;DHT22;10358;49.590;11.030;2023-02-15T15:54:34;7.80;98.30
20398;DHT22;10358;49.590;11.030;2023-02-15T15:57:04;7.60;98.20
20398;DHT22;10358;49.590;11.030;2023-02-15T15:59:33;7.30;99.40
20398;DHT22;10358;49.590;11.030;2023-02-15T16:02:07;7.10;99.90
20398;DHT22;10358;49.590;11.030;2023-02-15T16:04:36;7.00;99.90
20398;DHT22;10358;49.590;11.030;2023-02-15T16:07:23;7.10;99.90
20398;DHT22;10358;49.590;11.030;2023-02-15T16:10:02;7.20;99.90
20398;DHT22;10358;49.590;11.030;2023-02-15T16:12:31;7.30;99.90
20398;DHT22;10358;49.590;11.030;2023-02-15T16:14:57;7.30;99.90
20398;DHT22;10358;49.590;11.030;2023-02-15T16:17:29;7.20;99.90
20398;DHT22;10358;49.590;11.030;2023-02-15T16:20:17;7.00;99.90
20398;DHT22;10358;49.590;11.030;2023-02-15T16:22:48;6.80;99.90
20398;DHT22;10358;49.590;11.030;2023-02-15T16:25:53;6.70;99.90
20398;DHT22;10358;49.590;11.030;2023-02-15T16:28:21;6.70;99.90
20398;DHT22;10358;49.590;11.030;2023-02-15T16:31:03;6.60;99.90
20398;DHT22;10358;49.590;11.030;2023-02-15T16:33:39;6.50;99.90
20398;DHT22;10358;49.590;11.030;2023-02-15T16:36:06;6.30;99.90
20398;DHT22;10358;49.590;11.030;2023-02-15T16:41:15;6.10;99.90
20398;DHT22;10358;49.590;11.030;2023-02-15T16:43:43;5.90;99.90
20398;DHT22;10358;49.590;11.030;2023-02-15T16:46:18;5.80;99.90
20398;DHT22;10358;49.590;11.030;2023-02-15T16:48:46;5.70;99.90
20398;DHT22;10358;49.590;11.030;2023-02-15T16:51:28;5.50;99.90
20398;DHT22;10358;49.590;11.030;2023-02-15T16:53:55;5.30;99.90
20398;DHT22;10358;49.590;11.030;2023-02-15T16:56:26;5.10;99.90
20398;DHT22;10358;49.590;11.030;2023-02-15T16:58:54;4.90;99.90
20398;DHT22;10358;49.590;11.030;2023-02-15T17:01:21;4.70;99.90
20398;DHT22;10358;49.590;11.030;2023-02-15T17:03:50;4.40;99.90
20398;DHT22;10358;49.590;11.030;2023-02-15T17:06:24;4.30;99.90
20398;DHT22;10358;49.590;11.030;2023-02-15T17:08:52;4.20;99.90
20398;DHT22;10358;49.590;11.030;2023-02-15T17:11:36;4.10;99.90
20398;DHT22;10358;49.590;11.030;2023-02-15T17:16:42;3.90;99.90
20398;DHT22;10358;49.590;11.030;2023-02-15T17:19:15;3.70;99.90
20398;DHT22;10358;49.590;11.030;2023-02-15T17:22:05;3.50;99.90
20398;DHT22;10358;49.590;11.030;2023-02-15T17:27:19;3.40;99.90
20398;DHT22;10358;49.590;11.030;2023-02-15T17:29:52;3.20;99.90
20398;DHT22;10358;49.590;11.030;2023-02-15T17:32:25;3.00;99.90
20398;DHT22;10358;49.590;11.030;2023-02-15T17:35:18;2.90;99.90
20398;DHT22;10358;49.590;11.030;2023-02-15T17:37:48;2.80;99.90
20398;DHT22;10358;49.590;11.030;2023-02-15T17:42:47;2.50;99.90
20398;DHT22;10358;49.590;11.030;2023-02-15T17:45:13;2.50;99.90
20398;DHT22;10358;49.590;11.030;2023-02-15T17:47:39;2.40;99.90
20398;DHT22;10358;49.590;11.030;2023-02-15T17:50:06;2.30;99.90
20398;DHT22;10358;49.590;11.030;2023-02-15T17:52:32;2.30;99.90
20398;DHT22;10358;49.590;11.030;2023-02-15T17:54:58;2.20;99.90
20398;DHT22;10358;49.590;11.030;2023-02-15T17:57:44;2.10;99.90
20398;DHT22;10358;49.590;11.030;2023-02-15T18:00:14;2.00;99.90
20398;DHT22;10358;49.590;11.030;2023-02-15T18:02:58;2.00;99.90
20398;DHT22;10358;49.590;11.030;2023-02-15T18:05:42;1.90;99.90
20398;DHT22;10358;49.590;11.030;2023-02-15T18:08:27;1.80;99.90
20398;DHT22;10358;49.590;11.030;2023-02-15T18:11:12;1.70;99.90
20398;DHT22;10358;49.590;11.030;2023-02-15T18:13:56;1.70;99.90
20398;DHT22;10358;49.590;11.030;2023-02-15T18:16:28;1.60;99.90
20398;DHT22;10358;49.590;11.030;2023-02-15T18:18:55;1.50;99.90
20398;DHT22;10358;49.590;11.030;2023-02-15T18:21:22;1.40;99.90
20398;DHT22;10358;49.590;11.030;2023-02-15T18:23:47;1.40;99.90
20398;DHT22;10358;49.590;11.030;2023-02-15T18:26:20;1.40;99.90
20398;DHT22;10358;49.590;11.030;2023-02-15T18:28:46;1.40;99.90
20398;DHT22;10358;49.590;11.030;2023-02-15T18:31:12;1.30;99.90
20398;DHT22;10358;49.590;11.030;2023-02-15T18:34:01;1.20;99.90
20398;DHT22;10358;49.590;11.030;2023-02-15T18:36:29;1.10;99.90
20398;DHT22;10358;49.590;11.030;2023-02-15T18:38:57;1.10;99.90
20398;DHT22;10358;49.590;11.030;2023-02-15T18:41:24;1.10;99.90
20398;DHT22;10358;49.590;11.030;2023-02-15T18:43:51;1.10;99.90
20398;DHT22;10358;49.590;11.030;2023-02-15T18:46:18;1.10;99.90
20398;DHT22;10358;49.590;11.030;2023-02-15T18:48:44;1.10;99.90
20398;DHT22;10358;49.590;11.030;2023-02-15T18:51:19;1.10;99.90
20398;DHT22;10358;49.590;11.030;2023-02-15T18:53:47;1.00;99.90
20398;DHT22;10358;49.590;11.030;2023-02-15T18:56:15;1.00;99.90
20398;DHT22;10358;49.590;11.030;2023-02-15T18:58:41;0.90;99.90